sensor_id;sensor_type;location;lat;lon;timestamp;pressure;altitude;pressure_sealevel;temperature;humidity
52535;BME280;38443;53.164;5.802;2023-03-13T00:01:46;100149.34;;;6.48;100.00
52535;BME280;38443;53.164;5.802;2023-03-13T00:04:12;100123.50;;;6.53;100.00
52535;BME280;38443;53.164;5.802;2023-03-13T00:06:37;100123.50;;;6.53;100.00
52535;BME280;38443;53.164;5.802;2023-03-13T00:09:05;100115.53;;;6.53;100.00
52535;BME280;38443;53.164;5.802;2023-03-13T00:11:31;100106.69;;;6.53;100.00
52535;BME280;38443;53.164;5.802;2023-03-13T00:13:57;100108.53;;;6.51;100.00
52535;BME280;38443;53.164;5.802;2023-03-13T00:16:23;100097.03;;;6.50;100.00
52535;BME280;38443;53.164;5.802;2023-03-13T00:18:50;100082.94;;;6.47;100.00
52535;BME280;38443;53.164;5.802;2023-03-13T00:21:17;100082.94;;;6.45;100.00
52535;BME280;38443;53.164;5.802;2023-03-13T00:23:43;100071.50;;;6.43;100.00
52535;BME280;38443;53.164;5.802;2023-03-13T00:26:09;100060.09;;;6.39;100.00
52535;BME280;38443;53.164;5.802;2023-03-13T00:28:36;100052.03;;;6.41;100.00
52535;BME280;38443;53.164;5.802;2023-03-13T00:31:06;100045.00;;;6.40;100.00
52535;BME280;38443;53.164;5.802;2023-03-13T00:33:37;100034.34;;;6.42;100.00
52535;BME280;38443;53.164;5.802;2023-03-13T00:36:06;100032.50;;;6.44;100.00
52535;BME280;38443;53.164;5.802;2023-03-13T00:38:32;100015.66;;;6.43;100.00
52535;BME280;38443;53.164;5.802;2023-03-13T00:40:58;100009.47;;;6.43;100.00
52535;BME280;38443;53.164;5.802;2023-03-13T00:43:24;100012.97;;;6.45;100.00
52535;BME280;38443;53.164;5.802;2023-03-13T00:45:49;100013.84;;;6.45;100.00
52535;BME280;38443;53.164;5.802;2023-03-13T00:48:14;99989.88;;;6.47;100.00
52535;BME280;38443;53.164;5.802;2023-03-13T00:50:39;100002.22;;;6.49;100.00
52535;BME280;38443;53.164;5.802;2023-03-13T00:53:04;99993.34;;;6.50;100.00
52535;BME280;38443;53.164;5.802;2023-03-13T00:55:30;100000.47;;;6.48;100.00
52535;BME280;38443;53.164;5.802;2023-03-13T00:57:55;99994.31;;;6.48;100.00
52535;BME280;38443;53.164;5.802;2023-03-13T01:00:20;99982.75;;;6.49;100.00
52535;BME280;38443;53.164;5.802;2023-03-13T01:02:45;99973.03;;;6.48;100.00
52535;BME280;38443;53.164;5.802;2023-03-13T01:05:11;99965.00;;;6.49;100.00
52535;BME280;38443;53.164;5.802;2023-03-13T01:07:37;99957.03;;;6.49;100.00
52535;BME280;38443;53.164;5.802;2023-03-13T01:10:02;99953.50;;;6.49;100.00
52535;BME280;38443;53.164;5.802;2023-03-13T01:12:28;99942.84;;;6.50;100.00
52535;BME280;38443;53.164;5.802;2023-03-13T01:14:54;99948.16;;;6.50;100.00
52535;BME280;38443;53.164;5.802;2023-03-13T01:17:19;99930.34;;;6.54;100.00
52535;BME280;38443;53.164;5.802;2023-03-13T01:19:45;99936.44;;;6.57;100.00
52535;BME280;38443;53.164;5.802;2023-03-13T01:22:10;99927.50;;;6.60;100.00
52535;BME280;38443;53.164;5.802;2023-03-13T01:24:37;99904.44;;;6.61;100.00
52535;BME280;38443;53.164;5.802;2023-03-13T01:27:02;99911.41;;;6.65;100.00
52535;BME280;38443;53.164;5.802;2023-03-13T01:29:27;99902.47;;;6.67;100.00
52535;BME280;38443;53.164;5.802;2023-03-13T01:31:52;99890.91;;;6.70;100.00
52535;BME280;38443;53.164;5.802;2023-03-13T01:34:18;99882.81;;;6.73;100.00
52535;BME280;38443;53.164;5.802;2023-03-13T01:36:43;99881.94;;;6.72;100.00
52535;BME280;38443;53.164;5.802;2023-03-13T01:39:09;99853.56;;;6.73;100.00
52535;BME280;38443;53.164;5.802;2023-03-13T01:41:36;99850.06;;;6.71;100.00
52535;BME280;38443;53.164;5.802;2023-03-13T01:44:01;99831.50;;;6.69;100.00
52535;BME280;38443;53.164;5.802;2023-03-13T01:46:27;99821.69;;;6.71;100.00
52535;BME280;38443;53.164;5.802;2023-03-13T01:48:54;99817.34;;;6.69;100.00
52535;BME280;38443;53.164;5.802;2023-03-13T01:51:28;99797.91;;;6.67;100.00
52535;BME280;38443;53.164;5.802;2023-03-13T01:54:07;99789.84;;;6.70;100.00
52535;BME280;38443;53.164;5.802;2023-03-13T01:56:46;99786.38;;;6.68;100.00
52535;BME280;38443;53.164;5.802;2023-03-13T01:59:16;99783.56;;;6.72;100.00
52535;BME280;38443;53.164;5.802;2023-03-13T02:01:45;99771.91;;;6.76;100.00
52535;BME280;38443;53.164;5.802;2023-03-13T02:04:13;99761.41;;;6.72;100.00
52535;BME280;38443;53.164;5.802;2023-03-13T02:06:43;99740.06;;;6.73;100.00
52535;BME280;38443;53.164;5.802;2023-03-13T02:09:12;99753.44;;;6.72;100.00
52535;BME280;38443;53.164;5.802;2023-03-13T02:14:05;99719.00;;;6.67;100.00
52535;BME280;38443;53.164;5.802;2023-03-13T02:16:31;99725.22;;;6.68;100.00
52535;BME280;38443;53.164;5.802;2023-03-13T02:18:57;99722.59;;;6.66;100.00
52535;BME280;38443;53.164;5.802;2023-03-13T02:21:30;99714.56;;;6.68;100.00
52535;BME280;38443;53.164;5.802;2023-03-13T02:24:12;99711.91;;;6.68;100.00
52535;BME280;38443;53.164;5.802;2023-03-13T02:26:41;99689.75;;;6.67;100.00
52535;BME280;38443;53.164;5.802;2023-03-13T02:29:07;99687.88;;;6.71;100.00
52535;BME280;38443;53.164;5.802;2023-03-13T02:31:33;99675.38;;;6.73;100.00
52535;BME280;38443;53.164;5.802;2023-03-13T02:33:59;99676.22;;;6.75;100.00
52535;BME280;38443;53.164;5.802;2023-03-13T02:36:26;99663.84;;;6.74;100.00
52535;BME280;38443;53.164;5.802;2023-03-13T02:38:59;99660.16;;;6.78;100.00
52535;BME280;38443;53.164;5.802;2023-03-13T02:41:27;99653.00;;;6.80;100.00
52535;BME280;38443;53.164;5.802;2023-03-13T02:43:52;99644.97;;;6.82;100.00
52535;BME280;38443;53.164;5.802;2023-03-13T02:46:18;99632.44;;;6.85;100.00
52535;BME280;38443;53.164;5.802;2023-03-13T02:48:52;99625.22;;;6.89;100.00
52535;BME280;38443;53.164;5.802;2023-03-13T02:51:25;99620.63;;;6.94;100.00
52535;BME280;38443;53.164;5.802;2023-03-13T02:53:55;99597.50;;;6.96;100.00
52535;BME280;38443;53.164;5.802;2023-03-13T02:56:24;99609.72;;;7.02;100.00
52535;BME280;38443;53.164;5.802;2023-03-13T02:58:51;99605.91;;;7.09;100.00
52535;BME280;38443;53.164;5.802;2023-03-13T03:01:16;99583.50;;;7.16;100.00
52535;BME280;38443;53.164;5.802;2023-03-13T03:03:42;99593.16;;;7.18;100.00
52535;BME280;38443;53.164;5.802;2023-03-13T03:06:07;99583.28;;;7.22;100.00
52535;BME280;38443;53.164;5.802;2023-03-13T03:08:33;99575.97;;;7.27;100.00
52535;BME280;38443;53.164;5.802;2023-03-13T03:10:58;99545.84;;;7.27;100.00
52535;BME280;38443;53.164;5.802;2023-03-13T03:13:24;99570.56;;;7.30;100.00
52535;BME280;38443;53.164;5.802;2023-03-13T03:15:49;99541.28;;;7.30;100.00
52535;BME280;38443;53.164;5.802;2023-03-13T03:18:14;99548.28;;;7.33;100.00
52535;BME280;38443;53.164;5.802;2023-03-13T03:20:40;99560.53;;;7.37;100.00
52535;BME280;38443;53.164;5.802;2023-03-13T03:23:05;99557.03;;;7.36;100.00
52535;BME280;38443;53.164;5.802;2023-03-13T03:25:30;99554.47;;;7.33;100.00
52535;BME280;38443;53.164;5.802;2023-03-13T03:27:56;99553.56;;;7.34;100.00
52535;BME280;38443;53.164;5.802;2023-03-13T03:30:21;99555.34;;;7.34;100.00
52535;BME280;38443;53.164;5.802;2023-03-13T03:32:46;99558.88;;;7.34;100.00
52535;BME280;38443;53.164;5.802;2023-03-13T03:35:11;99557.03;;;7.36;100.00
52535;BME280;38443;53.164;5.802;2023-03-13T03:37:37;99535.78;;;7.35;100.00
52535;BME280;38443;53.164;5.802;2023-03-13T03:40:02;99559.56;;;7.39;100.00
52535;BME280;38443;53.164;5.802;2023-03-13T03:42:30;99547.88;;;7.44;100.00
52535;BME280;38443;53.164;5.802;2023-03-13T03:44:55;99546.84;;;7.48;100.00
52535;BME280;38443;53.164;5.802;2023-03-13T03:47:20;99519.25;;;7.50;100.00
52535;BME280;38443;53.164;5.802;2023-03-13T03:49:45;99543.66;;;7.62;100.00
52535;BME280;38443;53.164;5.802;2023-03-13T03:52:11;99532.69;;;7.69;100.00
52535;BME280;38443;53.164;5.802;2023-03-13T03:54:36;99519.84;;;7.81;100.00
52535;BME280;38443;53.164;5.802;2023-03-13T03:57:01;99509.84;;;7.86;100.00
52535;BME280;38443;53.164;5.802;2023-03-13T03:59:26;99520.31;;;7.92;100.00
52535;BME280;38443;53.164;5.802;2023-03-13T04:01:52;99515.13;;;7.87;100.00
52535;BME280;38443;53.164;5.802;2023-03-13T04:04:20;99517.75;;;7.89;100.00
52535;BME280;38443;53.164;5.802;2023-03-13T04:06:45;99528.28;;;7.92;100.00
52535;BME280;38443;53.164;5.802;2023-03-13T04:09:10;99504.31;;;7.92;100.00
52535;BME280;38443;53.164;5.802;2023-03-13T04:11:36;99508.59;;;7.96;100.00
52535;BME280;38443;53.164;5.802;2023-03-13T04:14:01;99505.97;;;7.94;100.00
52535;BME280;38443;53.164;5.802;2023-03-13T04:16:26;99501.50;;;7.95;100.00
52535;BME280;38443;53.164;5.802;2023-03-13T04:18:51;99503.19;;;7.97;100.00
52535;BME280;38443;53.164;5.802;2023-03-13T04:21:17;99489.81;;;7.99;100.00
52535;BME280;38443;53.164;5.802;2023-03-13T04:23:42;99486.09;;;8.03;100.00
52535;BME280;38443;53.164;5.802;2023-03-13T04:26:07;99489.25;;;8.13;100.00
52535;BME280;38443;53.164;5.802;2023-03-13T04:28:33;99487.19;;;8.19;100.00
52535;BME280;38443;53.164;5.802;2023-03-13T04:30:58;99473.75;;;8.23;100.00
52535;BME280;38443;53.164;5.802;2023-03-13T04:33:25;99473.69;;;8.24;100.00
52535;BME280;38443;53.164;5.802;2023-03-13T04:35:50;99489.47;;;8.29;100.00
52535;BME280;38443;53.164;5.802;2023-03-13T04:38:16;99480.47;;;8.31;100.00
52535;BME280;38443;53.164;5.802;2023-03-13T04:40:41;99464.41;;;8.33;100.00
52535;BME280;38443;53.164;5.802;2023-03-13T04:43:08;99478.56;;;8.35;100.00
52535;BME280;38443;53.164;5.802;2023-03-13T04:45:33;99472.31;;;8.36;100.00
52535;BME280;38443;53.164;5.802;2023-03-13T04:47:58;99461.44;;;8.41;100.00
52535;BME280;38443;53.164;5.802;2023-03-13T04:50:24;99461.44;;;8.41;100.00
52535;BME280;38443;53.164;5.802;2023-03-13T04:52:49;99454.22;;;8.44;100.00
52535;BME280;38443;53.164;5.802;2023-03-13T04:55:15;99441.69;;;8.46;100.00
52535;BME280;38443;53.164;5.802;2023-03-13T04:57:40;99444.25;;;8.48;100.00
52535;BME280;38443;53.164;5.802;2023-03-13T05:00:05;99430.75;;;8.52;100.00
52535;BME280;38443;53.164;5.802;2023-03-13T05:02:35;99423.47;;;8.56;100.00
52535;BME280;38443;53.164;5.802;2023-03-13T05:05:00;99432.28;;;8.58;100.00
52535;BME280;38443;53.164;5.802;2023-03-13T05:07:26;99420.72;;;8.57;100.00
52535;BME280;38443;53.164;5.802;2023-03-13T05:09:51;99416.00;;;8.64;100.00
52535;BME280;38443;53.164;5.802;2023-03-13T05:12:16;99412.25;;;8.68;100.00
52535;BME280;38443;53.164;5.802;2023-03-13T05:14:42;99417.50;;;8.70;100.00
52535;BME280;38443;53.164;5.802;2023-03-13T05:17:07;99405.97;;;8.69;100.00
52535;BME280;38443;53.164;5.802;2023-03-13T05:19:32;99392.50;;;8.72;100.00
52535;BME280;38443;53.164;5.802;2023-03-13T05:21:57;99412.09;;;8.71;100.00
52535;BME280;38443;53.164;5.802;2023-03-13T05:24:23;99403.19;;;8.72;100.00
52535;BME280;38443;53.164;5.802;2023-03-13T05:26:48;99388.97;;;8.72;100.00
52535;BME280;38443;53.164;5.802;2023-03-13T05:29:13;99405.75;;;8.74;100.00
52535;BME280;38443;53.164;5.802;2023-03-13T05:31:38;99398.66;;;8.74;100.00
52535;BME280;38443;53.164;5.802;2023-03-13T05:34:04;99398.72;;;8.73;100.00
52535;BME280;38443;53.164;5.802;2023-03-13T05:36:29;99375.44;;;8.76;100.00
52535;BME280;38443;53.164;5.802;2023-03-13T05:38:54;99385.94;;;8.79;100.00
52535;BME280;38443;53.164;5.802;2023-03-13T05:41:19;99400.25;;;8.78;100.00
52535;BME280;38443;53.164;5.802;2023-03-13T05:43:45;99384.97;;;8.82;100.00
52535;BME280;38443;53.164;5.802;2023-03-13T05:46:10;99409.84;;;8.83;100.00
52535;BME280;38443;53.164;5.802;2023-03-13T05:48:35;99400.19;;;8.80;100.00
52535;BME280;38443;53.164;5.802;2023-03-13T05:51:00;99386.75;;;8.82;100.00
52535;BME280;38443;53.164;5.802;2023-03-13T05:53:26;99383.16;;;8.83;100.00
52535;BME280;38443;53.164;5.802;2023-03-13T05:55:51;99369.09;;;8.79;100.00
52535;BME280;38443;53.164;5.802;2023-03-13T05:58:16;99384.88;;;8.84;100.00
52535;BME280;38443;53.164;5.802;2023-03-13T06:00:42;99383.88;;;8.86;100.00
52535;BME280;38443;53.164;5.802;2023-03-13T06:03:08;99369.47;;;8.90;100.00
52535;BME280;38443;53.164;5.802;2023-03-13T06:05:33;99377.38;;;8.92;100.00
52535;BME280;38443;53.164;5.802;2023-03-13T06:07:58;99357.91;;;8.90;100.00
52535;BME280;38443;53.164;5.802;2023-03-13T06:10:23;99367.72;;;8.89;100.00
52535;BME280;38443;53.164;5.802;2023-03-13T06:12:53;99383.72;;;8.89;100.00
52535;BME280;38443;53.164;5.802;2023-03-13T06:15:19;99379.34;;;8.88;100.00
52535;BME280;38443;53.164;5.802;2023-03-13T06:17:44;99378.41;;;8.89;100.00
52535;BME280;38443;53.164;5.802;2023-03-13T06:20:10;99367.59;;;8.92;100.00
52535;BME280;38443;53.164;5.802;2023-03-13T06:22:35;99379.13;;;8.93;100.00
52535;BME280;38443;53.164;5.802;2023-03-13T06:25:01;99363.06;;;8.94;100.00
52535;BME280;38443;53.164;5.802;2023-03-13T06:27:26;99378.91;;;8.97;100.00
52535;BME280;38443;53.164;5.802;2023-03-13T06:29:51;99348.47;;;9.02;100.00
52535;BME280;38443;53.164;5.802;2023-03-13T06:32:16;99343.78;;;9.07;100.00
52535;BME280;38443;53.164;5.802;2023-03-13T06:34:42;99371.03;;;9.13;100.00
52535;BME280;38443;53.164;5.802;2023-03-13T06:37:07;99360.31;;;9.15;100.00
52535;BME280;38443;53.164;5.802;2023-03-13T06:39:32;99362.03;;;9.16;100.00
52535;BME280;38443;53.164;5.802;2023-03-13T06:41:58;99354.97;;;9.15;100.00
52535;BME280;38443;53.164;5.802;2023-03-13T06:44:23;99345.00;;;9.18;100.00
52535;BME280;38443;53.164;5.802;2023-03-13T06:46:48;99344.94;;;9.20;100.00
52535;BME280;38443;53.164;5.802;2023-03-13T06:49:13;99339.50;;;9.22;100.00
52535;BME280;38443;53.164;5.802;2023-03-13T06:51:39;99340.91;;;9.30;100.00
52535;BME280;38443;53.164;5.802;2023-03-13T06:54:04;99325.56;;;9.34;100.00
52535;BME280;38443;53.164;5.802;2023-03-13T06:56:29;99327.16;;;9.38;100.00
52535;BME280;38443;53.164;5.802;2023-03-13T06:58:55;99320.81;;;9.41;100.00
52535;BME280;38443;53.164;5.802;2023-03-13T07:01:20;99324.03;;;9.47;100.00
52535;BME280;38443;53.164;5.802;2023-03-13T07:03:46;99333.06;;;9.45;100.00
52535;BME280;38443;53.164;5.802;2023-03-13T07:06:11;99323.31;;;9.44;100.00
52535;BME280;38443;53.164;5.802;2023-03-13T07:08:37;99326.22;;;9.39;100.00
52535;BME280;38443;53.164;5.802;2023-03-13T07:11:10;99338.63;;;9.40;100.00
52535;BME280;38443;53.164;5.802;2023-03-13T07:13:36;99318.13;;;9.41;100.00
52535;BME280;38443;53.164;5.802;2023-03-13T07:16:02;99343.41;;;9.33;100.00
52535;BME280;38443;53.164;5.802;2023-03-13T07:18:29;99346.94;;;9.34;100.00
52535;BME280;38443;53.164;5.802;2023-03-13T07:20:57;99337.13;;;9.34;100.00
52535;BME280;38443;53.164;5.802;2023-03-13T07:23:24;99328.09;;;9.37;100.00
52535;BME280;38443;53.164;5.802;2023-03-13T07:26:01;99348.59;;;9.36;100.00
52535;BME280;38443;53.164;5.802;2023-03-13T07:28:27;99347.66;;;9.37;100.00
52535;BME280;38443;53.164;5.802;2023-03-13T07:30:55;99362.81;;;9.37;100.00
52535;BME280;38443;53.164;5.802;2023-03-13T07:33:26;99349.47;;;9.37;100.00
52535;BME280;38443;53.164;5.802;2023-03-13T07:35:52;99364.63;;;9.36;100.00
52535;BME280;38443;53.164;5.802;2023-03-13T07:38:18;99358.25;;;9.39;100.00
52535;BME280;38443;53.164;5.802;2023-03-13T07:40:51;99359.19;;;9.38;100.00
52535;BME280;38443;53.164;5.802;2023-03-13T07:43:17;99344.91;;;9.39;100.00
52535;BME280;38443;53.164;5.802;2023-03-13T07:48:21;99340.06;;;9.47;100.00
52535;BME280;38443;53.164;5.802;2023-03-13T07:50:47;99348.78;;;9.51;100.00
52535;BME280;38443;53.164;5.802;2023-03-13T07:53:13;99337.16;;;9.52;100.00
52535;BME280;38443;53.164;5.802;2023-03-13T07:55:54;99339.63;;;9.56;100.00
52535;BME280;38443;53.164;5.802;2023-03-13T07:58:20;99339.50;;;9.58;100.00
52535;BME280;38443;53.164;5.802;2023-03-13T08:00:45;99322.41;;;9.62;100.00
52535;BME280;38443;53.164;5.802;2023-03-13T08:03:11;99296.00;;;9.73;100.00
52535;BME280;38443;53.164;5.802;2023-03-13T08:05:36;99306.63;;;9.75;100.00
52535;BME280;38443;53.164;5.802;2023-03-13T08:08:01;99324.41;;;9.93;100.00
52535;BME280;38443;53.164;5.802;2023-03-13T08:10:26;99315.34;;;10.13;100.00
52535;BME280;38443;53.164;5.802;2023-03-13T08:12:52;99307.13;;;10.51;100.00
52535;BME280;38443;53.164;5.802;2023-03-13T08:15:17;99307.78;;;10.56;100.00
52535;BME280;38443;53.164;5.802;2023-03-13T08:17:45;99292.16;;;10.65;100.00
52535;BME280;38443;53.164;5.802;2023-03-13T08:20:11;99323.25;;;10.83;100.00
52535;BME280;38443;53.164;5.802;2023-03-13T08:22:36;99317.16;;;11.13;100.00
52535;BME280;38443;53.164;5.802;2023-03-13T08:25:02;99309.53;;;11.37;100.00
52535;BME280;38443;53.164;5.802;2023-03-13T08:27:28;99303.19;;;11.54;100.00
52535;BME280;38443;53.164;5.802;2023-03-13T08:29:54;99305.47;;;11.76;100.00
52535;BME280;38443;53.164;5.802;2023-03-13T08:32:19;99309.25;;;12.04;100.00
52535;BME280;38443;53.164;5.802;2023-03-13T08:34:46;99306.66;;;12.16;100.00
52535;BME280;38443;53.164;5.802;2023-03-13T08:37:14;99309.94;;;12.22;100.00
52535;BME280;38443;53.164;5.802;2023-03-13T08:39:39;99299.81;;;12.27;100.00
52535;BME280;38443;53.164;5.802;2023-03-13T08:42:07;99300.69;;;12.42;100.00
52535;BME280;38443;53.164;5.802;2023-03-13T08:44:35;99285.25;;;12.45;100.00
52535;BME280;38443;53.164;5.802;2023-03-13T08:47:00;99300.59;;;12.43;100.00
52535;BME280;38443;53.164;5.802;2023-03-13T08:49:26;99294.47;;;12.41;100.00
52535;BME280;38443;53.164;5.802;2023-03-13T08:51:51;99311.38;;;12.13;100.00
52535;BME280;38443;53.164;5.802;2023-03-13T08:54:16;99312.44;;;11.48;100.00
52535;BME280;38443;53.164;5.802;2023-03-13T08:56:42;99294.69;;;11.00;100.00
52535;BME280;38443;53.164;5.802;2023-03-13T08:59:09;99326.28;;;10.77;100.00
52535;BME280;38443;53.164;5.802;2023-03-13T09:01:35;99320.03;;;10.61;100.00
52535;BME280;38443;53.164;5.802;2023-03-13T09:04:02;99318.94;;;10.47;100.00
52535;BME280;38443;53.164;5.802;2023-03-13T09:06:27;99319.28;;;10.41;100.00
52535;BME280;38443;53.164;5.802;2023-03-13T09:08:55;99324.16;;;10.33;100.00
52535;BME280;38443;53.164;5.802;2023-03-13T09:11:21;99305.91;;;10.24;100.00
52535;BME280;38443;53.164;5.802;2023-03-13T09:13:48;99327.47;;;10.21;100.00
52535;BME280;38443;53.164;5.802;2023-03-13T09:16:16;99325.72;;;10.19;100.00
52535;BME280;38443;53.164;5.802;2023-03-13T09:18:42;99319.13;;;10.27;100.00
52535;BME280;38443;53.164;5.802;2023-03-13T09:21:11;99317.00;;;10.33;100.00
52535;BME280;38443;53.164;5.802;2023-03-13T09:23:37;99308.72;;;10.38;100.00
52535;BME280;38443;53.164;5.802;2023-03-13T09:26:03;99306.84;;;10.40;100.00
52535;BME280;38443;53.164;5.802;2023-03-13T09:28:29;99317.63;;;10.38;100.00
52535;BME280;38443;53.164;5.802;2023-03-13T09:30:54;99301.75;;;10.35;100.00
52535;BME280;38443;53.164;5.802;2023-03-13T09:33:21;99306.38;;;10.32;100.00
52535;BME280;38443;53.164;5.802;2023-03-13T09:35:48;99292.38;;;10.27;100.00
52535;BME280;38443;53.164;5.802;2023-03-13T09:38:20;99293.25;;;10.45;100.00
52535;BME280;38443;53.164;5.802;2023-03-13T09:40:50;99269.88;;;10.64;100.00
52535;BME280;38443;53.164;5.802;2023-03-13T09:46:01;99265.06;;;10.87;100.00
52535;BME280;38443;53.164;5.802;2023-03-13T09:48:31;99260.56;;;11.03;100.00
52535;BME280;38443;53.164;5.802;2023-03-13T09:51:10;99231.63;;;11.10;100.00
52535;BME280;38443;53.164;5.802;2023-03-13T09:53:44;99235.50;;;11.20;100.00
52535;BME280;38443;53.164;5.802;2023-03-13T09:56:16;99224.41;;;11.26;100.00
52535;BME280;38443;53.164;5.802;2023-03-13T09:58:51;99222.94;;;11.36;100.00
52535;BME280;38443;53.164;5.802;2023-03-13T10:01:20;99227.00;;;11.44;100.00
52535;BME280;38443;53.164;5.802;2023-03-13T10:04:05;99241.25;;;11.44;100.00
52535;BME280;38443;53.164;5.802;2023-03-13T10:06:40;99204.50;;;11.46;100.00
52535;BME280;38443;53.164;5.802;2023-03-13T10:09:16;99234.50;;;11.53;100.00
52535;BME280;38443;53.164;5.802;2023-03-13T10:11:51;99229.75;;;11.72;100.00
52535;BME280;38443;53.164;5.802;2023-03-13T10:14:28;99230.09;;;11.96;100.00
52535;BME280;38443;53.164;5.802;2023-03-13T10:17:06;99212.13;;;12.13;100.00
52535;BME280;38443;53.164;5.802;2023-03-13T10:19:37;99230.22;;;12.09;100.00
52535;BME280;38443;53.164;5.802;2023-03-13T10:22:11;99228.50;;;12.08;100.00
52535;BME280;38443;53.164;5.802;2023-03-13T10:27:12;99208.88;;;12.08;100.00
52535;BME280;38443;53.164;5.802;2023-03-13T10:29:38;99183.56;;;12.12;100.00
52535;BME280;38443;53.164;5.802;2023-03-13T10:32:06;99203.22;;;12.12;100.00
52535;BME280;38443;53.164;5.802;2023-03-13T10:34:51;99218.53;;;12.10;100.00
52535;BME280;38443;53.164;5.802;2023-03-13T10:37:26;99207.63;;;12.13;100.00
52535;BME280;38443;53.164;5.802;2023-03-13T10:39:52;99206.00;;;12.11;100.00
52535;BME280;38443;53.164;5.802;2023-03-13T10:42:22;99201.41;;;12.13;100.00
52535;BME280;38443;53.164;5.802;2023-03-13T10:44:48;99213.94;;;12.12;100.00
52535;BME280;38443;53.164;5.802;2023-03-13T10:47:14;99189.78;;;12.12;100.00
52535;BME280;38443;53.164;5.802;2023-03-13T10:49:48;99196.03;;;12.13;100.00
52535;BME280;38443;53.164;5.802;2023-03-13T10:52:30;99187.88;;;12.14;100.00
52535;BME280;38443;53.164;5.802;2023-03-13T10:55:05;99185.19;;;12.14;100.00
52535;BME280;38443;53.164;5.802;2023-03-13T10:57:33;99181.50;;;12.17;100.00
52535;BME280;38443;53.164;5.802;2023-03-13T10:59:59;99194.03;;;12.31;100.00
52535;BME280;38443;53.164;5.802;2023-03-13T11:02:38;99188.66;;;12.45;100.00
52535;BME280;38443;53.164;5.802;2023-03-13T11:07:48;99180.34;;;12.77;100.00
52535;BME280;38443;53.164;5.802;2023-03-13T11:10:27;99199.81;;;12.66;100.00
52535;BME280;38443;53.164;5.802;2023-03-13T11:12:57;99185.19;;;12.57;100.00
52535;BME280;38443;53.164;5.802;2023-03-13T11:15:32;99198.31;;;12.48;100.00
52535;BME280;38443;53.164;5.802;2023-03-13T11:18:21;99180.88;;;12.41;100.00
52535;BME280;38443;53.164;5.802;2023-03-13T11:20:50;99193.13;;;12.45;100.00
52535;BME280;38443;53.164;5.802;2023-03-13T11:31:12;99183.03;;;12.63;100.00
52535;BME280;38443;53.164;5.802;2023-03-13T11:36:15;99182.88;;;12.51;100.00
52535;BME280;38443;53.164;5.802;2023-03-13T11:38:47;99194.78;;;12.47;100.00
52535;BME280;38443;53.164;5.802;2023-03-13T11:43:48;99196.59;;;12.32;100.00
52535;BME280;38443;53.164;5.802;2023-03-13T11:46:39;99192.00;;;12.34;100.00
52535;BME280;38443;53.164;5.802;2023-03-13T11:49:26;99176.19;;;12.30;100.00
52535;BME280;38443;53.164;5.802;2023-03-13T11:52:34;99172.56;;;12.31;100.00
52535;BME280;38443;53.164;5.802;2023-03-13T11:55:27;99179.94;;;12.27;100.00
52535;BME280;38443;53.164;5.802;2023-03-13T11:58:18;99176.09;;;12.31;100.00
52535;BME280;38443;53.164;5.802;2023-03-13T12:01:09;99180.63;;;12.31;100.00
52535;BME280;38443;53.164;5.802;2023-03-13T12:06:24;99147.50;;;12.45;100.00
52535;BME280;38443;53.164;5.802;2023-03-13T12:09:14;99180.75;;;12.56;100.00
52535;BME280;38443;53.164;5.802;2023-03-13T12:11:54;99159.91;;;12.47;100.00
52535;BME280;38443;53.164;5.802;2023-03-13T12:16:59;99160.31;;;12.27;100.00
52535;BME280;38443;53.164;5.802;2023-03-13T12:19:40;99152.84;;;12.17;100.00
52535;BME280;38443;53.164;5.802;2023-03-13T12:22:15;99139.06;;;12.09;100.00
52535;BME280;38443;53.164;5.802;2023-03-13T12:24:54;99128.34;;;11.95;100.00
52535;BME280;38443;53.164;5.802;2023-03-13T12:27:26;99114.88;;;11.81;100.00
52535;BME280;38443;53.164;5.802;2023-03-13T12:30:16;99109.63;;;11.65;100.00
52535;BME280;38443;53.164;5.802;2023-03-13T12:32:52;99115.25;;;11.60;100.00
52535;BME280;38443;53.164;5.802;2023-03-13T12:35:26;99112.41;;;11.63;100.00
52535;BME280;38443;53.164;5.802;2023-03-13T12:38:01;99117.38;;;11.69;100.00
52535;BME280;38443;53.164;5.802;2023-03-13T12:43:33;99096.31;;;11.77;100.00
52535;BME280;38443;53.164;5.802;2023-03-13T12:51:29;99096.88;;;11.68;100.00
52535;BME280;38443;53.164;5.802;2023-03-13T12:54:17;99103.69;;;11.74;100.00
52535;BME280;38443;53.164;5.802;2023-03-13T12:56:55;99102.44;;;11.80;100.00
52535;BME280;38443;53.164;5.802;2023-03-13T12:59:29;99090.47;;;11.85;100.00
52535;BME280;38443;53.164;5.802;2023-03-13T13:01:57;99073.53;;;11.85;100.00
52535;BME280;38443;53.164;5.802;2023-03-13T13:04:29;99070.09;;;11.83;100.00
52535;BME280;38443;53.164;5.802;2023-03-13T13:09:26;99064.44;;;11.87;100.00
52535;BME280;38443;53.164;5.802;2023-03-13T13:11:54;99081.38;;;11.88;100.00
52535;BME280;38443;53.164;5.802;2023-03-13T13:16:50;99057.09;;;11.91;100.00
52535;BME280;38443;53.164;5.802;2023-03-13T13:25:00;99060.41;;;11.94;100.00
52535;BME280;38443;53.164;5.802;2023-03-13T13:29:59;99063.47;;;11.88;100.00
52535;BME280;38443;53.164;5.802;2023-03-13T13:32:37;99064.44;;;11.87;100.00
52535;BME280;38443;53.164;5.802;2023-03-13T13:35:05;99009.00;;;11.88;100.00
52535;BME280;38443;53.164;5.802;2023-03-13T13:37:42;99029.59;;;11.87;100.00
52535;BME280;38443;53.164;5.802;2023-03-13T13:40:26;99036.78;;;11.87;100.00
52535;BME280;38443;53.164;5.802;2023-03-13T13:45:29;99020.00;;;11.83;100.00
52535;BME280;38443;53.164;5.802;2023-03-13T13:48:14;99045.97;;;11.83;100.00
52535;BME280;38443;53.164;5.802;2023-03-13T13:53:49;99035.34;;;11.81;100.00
52535;BME280;38443;53.164;5.802;2023-03-13T13:57:05;99031.13;;;11.77;100.00
52535;BME280;38443;53.164;5.802;2023-03-13T13:59:45;99026.25;;;11.69;100.00
52535;BME280;38443;53.164;5.802;2023-03-13T14:02:18;99023.88;;;11.65;100.00